Time;durP1;ratioP1;P1;durP2;ratioP2;P2;SDS_P1;SDS_P2;PMS_P1;PMS_P2;Temp;Humidity;BMP_temperature;BMP_pressure;BME280_temperature;BME280_humidity;BME280_pressure;Samples;Min_cycle;Max_cycle;Signal;HPM_P1;HPM_P2
2022/07/31 00:04:35;;;;;;;6.53;1.42;;;18.60;1.00;;;;;;10481714;28;20199;-90
2022/07/31 00:09:57;;;;;;;2.75;1.25;;;18.60;1.00;;;;;;10467200;28;20246;-88
2022/07/31 00:15:18;;;;;;;2.47;1.40;;;18.50;1.00;;;;;;10480089;28;20233;-88
2022/07/31 00:20:39;;;;;;;2.50;0.98;;;18.60;1.00;;;;;;10453381;28;20201;-88
2022/07/31 00:26:01;;;;;;;4.60;1.70;;;18.60;1.00;;;;;;10481162;28;20426;-88
2022/07/31 00:31:23;;;;;;;6.25;1.98;;;18.60;1.00;;;;;;10452622;28;20247;-88
2022/07/31 00:36:44;;;;;;;1.65;1.20;;;18.60;1.00;;;;;;10466873;28;20192;-88
2022/07/31 00:42:15;;;;;;;2.28;1.20;;;18.50;1.00;;;;;;10466383;28;20199;-87
2022/07/31 00:47:36;;;;;;;1.80;1.00;;;18.50;1.00;;;;;;10465956;28;20487;-88
2022/07/31 00:52:57;;;;;;;3.42;1.23;;;18.50;1.00;;;;;;10465037;28;20468;-88
2022/07/31 00:58:19;;;;;;;5.03;1.52;;;18.60;1.00;;;;;;10465715;28;20196;-88
2022/07/31 01:03:40;;;;;;;3.05;0.98;;;18.50;1.00;;;;;;10451566;28;20226;-87
2022/07/31 01:09:02;;;;;;;1.45;0.90;;;18.50;1.00;;;;;;10507889;28;20228;-89
2022/07/31 01:14:30;;;;;;;2.88;1.00;;;18.40;1.00;;;;;;10492977;28;20243;-88
2022/07/31 01:19:52;;;;;;;2.25;1.10;;;18.40;1.00;;;;;;10478802;28;20490;-88
2022/07/31 01:25:56;;;;;;;2.75;1.25;;;18.40;1.00;;;;;;10479893;28;20192;-88
2022/07/31 01:32:14;;;;;;;3.72;1.50;;;18.40;1.00;;;;;;10512042;28;20257;-87
2022/07/31 01:37:48;;;;;;;1.55;1.10;;;18.30;1.00;;;;;;10464162;28;20199;-89
2022/07/31 01:43:26;;;;;;;7.00;0.98;;;18.30;1.00;;;;;;10478384;28;20195;-87
2022/07/31 01:48:48;;;;;;;2.45;0.93;;;18.20;1.00;;;;;;10492331;28;20415;-88
2022/07/31 01:54:13;;;;;;;1.38;1.00;;;18.10;1.00;;;;;;10477921;28;20223;-86
2022/07/31 01:59:36;;;;;;;3.47;1.40;;;18.00;1.00;;;;;;10450595;28;20268;-87
2022/07/31 02:05:11;;;;;;;2.53;1.27;;;18.00;1.00;;;;;;10460642;28;20200;-86
2022/07/31 02:10:33;;;;;;;2.75;1.20;;;17.90;1.00;;;;;;10463377;28;20223;-85
2022/07/31 02:15:57;;;;;;;2.10;1.40;;;17.80;1.00;;;;;;10451005;28;20240;-86
2022/07/31 02:21:19;;;;;;;2.30;1.17;;;17.80;1.00;;;;;;10421340;28;20395;-86
2022/07/31 02:26:40;;;;;;;4.70;1.60;;;17.80;1.00;;;;;;10454688;28;20475;-86
2022/07/31 02:32:04;;;;;;;2.13;1.30;;;17.70;1.00;;;;;;10454689;28;20262;-86
2022/07/31 02:37:26;;;;;;;1.60;1.25;;;17.60;1.00;;;;;;10454879;28;20270;-86
2022/07/31 02:42:48;;;;;;;2.70;1.30;;;17.60;1.00;;;;;;10435873;28;20188;-88
2022/07/31 02:48:10;;;;;;;3.33;1.80;;;17.50;1.00;;;;;;10442690;28;20207;-88
2022/07/31 02:53:37;;;;;;;3.35;1.38;;;17.40;1.00;;;;;;10454688;28;20292;-89
2022/07/31 02:59:03;;;;;;;2.53;1.70;;;17.30;1.00;;;;;;10473704;28;20218;-87
2022/07/31 03:04:39;;;;;;;2.35;1.38;;;17.30;5.30;;;;;;10490445;28;20196;-89
2022/07/31 03:10:02;;;;;;;2.47;1.40;;;17.20;15.90;;;;;;10462141;28;20229;-87
2022/07/31 03:15:46;;;;;;;1.30;1.20;;;17.20;19.10;;;;;;10465689;28;20243;-86
2022/07/31 03:21:10;;;;;;;3.65;1.40;;;17.20;36.60;;;;;;10456216;28;20446;-88
2022/07/31 03:26:32;;;;;;;1.52;1.30;;;17.20;25.80;;;;;;10442388;28;20199;-88
2022/07/31 03:31:54;;;;;;;2.50;1.50;;;17.30;9.60;;;;;;10428023;28;20278;-89
2022/07/31 03:37:16;;;;;;;1.98;1.25;;;17.20;21.40;;;;;;10455686;28;20188;-88
2022/07/31 03:42:38;;;;;;;2.20;1.20;;;17.10;39.00;;;;;;10455653;28;20199;-89
2022/07/31 03:48:01;;;;;;;2.38;1.27;;;17.10;32.20;;;;;;10442370;28;20218;-89
2022/07/31 03:53:23;;;;;;;5.03;1.35;;;17.10;37.30;;;;;;10441009;28;20288;-88
2022/07/31 03:58:45;;;;;;;2.30;1.30;;;17.20;26.00;;;;;;10493094;28;20210;-88
2022/07/31 04:04:06;;;;;;;1.73;1.50;;;17.10;43.80;;;;;;10428757;28;20200;-88
2022/07/31 04:09:32;;;;;;;1.67;1.13;;;17.20;38.40;;;;;;10440416;28;20203;-88
2022/07/31 04:14:55;;;;;;;4.68;1.33;;;17.20;45.60;;;;;;10472082;28;20239;-88
2022/07/31 04:20:17;;;;;;;1.73;1.40;;;17.20;44.40;;;;;;10454465;28;20200;-87
2022/07/31 04:25:38;;;;;;;4.03;2.47;;;17.30;45.20;;;;;;10455117;28;20204;-87
2022/07/31 04:31:16;;;;;;;4.43;2.40;;;17.30;48.70;;;;;;10453106;28;20322;-87
2022/07/31 04:36:39;;;;;;;8.23;4.90;;;17.50;31.70;;;;;;10472653;28;20488;-88
2022/07/31 04:42:00;;;;;;;5.10;3.38;;;17.50;26.30;;;;;;10425145;28;20204;-87
2022/07/31 04:47:22;;;;;;;5.38;1.45;;;17.60;22.30;;;;;;10452844;28;20429;-87
2022/07/31 04:52:44;;;;;;;2.22;1.33;;;17.60;18.90;;;;;;10452706;28;20228;-88
2022/07/31 04:58:06;;;;;;;5.25;1.95;;;17.70;19.90;;;;;;10482839;28;20234;-88
2022/07/31 05:03:27;;;;;;;1.63;1.40;;;17.70;12.00;;;;;;10450733;28;20211;-88
2022/07/31 05:08:48;;;;;;;2.13;1.25;;;17.70;6.10;;;;;;10494090;28;20199;-88
2022/07/31 05:14:13;;;;;;;1.65;1.40;;;17.70;4.50;;;;;;10497944;28;20244;-88
2022/07/31 05:19:35;;;;;;;9.38;5.45;;;17.80;13.90;;;;;;10440124;28;20207;-87
2022/07/31 05:25:21;;;;;;;7.28;4.50;;;17.90;8.10;;;;;;10433830;28;20204;-88
2022/07/31 05:30:43;;;;;;;2.35;1.67;;;18.00;1.00;;;;;;10437146;28;20391;-87
2022/07/31 05:36:06;;;;;;;1.92;1.20;;;18.00;2.30;;;;;;10456429;28;20202;-90
2022/07/31 05:41:29;;;;;;;1.45;1.17;;;18.10;1.00;;;;;;10452943;28;20212;-86
2022/07/31 05:47:13;;;;;;;3.47;1.38;;;18.10;1.00;;;;;;10404086;28;20283;-88
2022/07/31 05:52:35;;;;;;;1.98;1.13;;;18.30;1.00;;;;;;10377295;28;20233;-88
2022/07/31 05:58:15;;;;;;;1.08;0.98;;;18.40;1.00;;;;;;10390787;28;20224;-88
2022/07/31 06:03:39;;;;;;;2.92;1.52;;;18.50;1.00;;;;;;10363014;28;20251;-89
2022/07/31 06:09:09;;;;;;;2.40;1.40;;;18.70;1.00;;;;;;10364282;28;20247;-88
2022/07/31 06:14:35;;;;;;;2.85;1.27;;;18.90;1.00;;;;;;10362070;28;20598;-89
2022/07/31 06:20:07;;;;;;;5.32;1.30;;;18.90;1.00;;;;;;10390291;28;20276;-87
2022/07/31 06:25:29;;;;;;;3.10;1.38;;;19.00;1.00;;;;;;10436181;28;20212;-88
2022/07/31 06:30:50;;;;;;;2.63;1.20;;;19.10;1.00;;;;;;10452407;28;20220;-88
2022/07/31 06:36:11;;;;;;;2.38;1.38;;;19.20;1.00;;;;;;10465788;28;20200;-89
2022/07/31 06:42:03;;;;;;;7.75;1.48;;;19.30;1.00;;;;;;10444298;28;20220;-88
2022/07/31 06:47:25;;;;;;;4.45;1.80;;;19.40;1.00;;;;;;10449200;28;20272;-87
2022/07/31 06:52:46;;;;;;;2.13;1.55;;;19.50;1.00;;;;;;10455615;28;20464;-87
2022/07/31 06:58:08;;;;;;;3.00;1.40;;;19.60;1.00;;;;;;10492857;28;20196;-88
2022/07/31 07:03:30;;;;;;;3.80;1.50;;;19.80;1.00;;;;;;10486711;28;20207;-89
2022/07/31 07:08:52;;;;;;;3.05;1.40;;;20.00;1.00;;;;;;10470189;28;20208;-88
2022/07/31 07:14:15;;;;;;;3.28;1.52;;;20.00;1.00;;;;;;10469318;28;20235;-88
2022/07/31 07:19:40;;;;;;;2.10;1.40;;;20.20;1.00;;;;;;10445049;28;20203;-88
2022/07/31 07:25:03;;;;;;;5.15;1.50;;;20.30;99.90;;;;;;10431036;28;20200;-88
2022/07/31 07:30:27;;;;;;;3.15;1.27;;;20.50;99.90;;;;;;10428401;28;20279;-88
2022/07/31 07:35:52;;;;;;;6.50;1.67;;;20.60;99.90;;;;;;10427993;28;20279;-89
2022/07/31 07:41:13;;;;;;;1.70;1.00;;;20.80;99.90;;;;;;10427786;28;20197;-89
2022/07/31 07:46:35;;;;;;;4.22;1.50;;;20.90;1.00;;;;;;10441822;28;20392;-89
2022/07/31 07:51:58;;;;;;;3.20;1.08;;;21.10;1.00;;;;;;10455522;28;20231;-88
2022/07/31 07:57:32;;;;;;;1.63;1.13;;;21.30;1.00;;;;;;10454642;28;20211;-89
2022/07/31 08:03:12;;;;;;;2.05;1.30;;;21.70;99.90;;;;;;10471282;28;20208;-88
2022/07/31 08:08:34;;;;;;;2.35;1.30;;;21.90;99.90;;;;;;10482502;28;20406;-87
2022/07/31 08:14:15;;;;;;;2.63;1.42;;;22.10;1.00;;;;;;10481325;28;20258;-88
2022/07/31 08:20:15;;;;;;;1.42;1.17;;;22.00;99.90;;;;;;10472800;28;20195;-87
2022/07/31 08:25:36;;;;;;;3.85;1.33;;;22.20;99.90;;;;;;10481913;28;20222;-89
2022/07/31 08:31:00;;;;;;;3.67;1.45;;;22.60;1.00;;;;;;10467490;28;20393;-89
2022/07/31 08:36:23;;;;;;;1.90;1.20;;;23.10;1.00;;;;;;10467417;28;20282;-86
2022/07/31 08:41:44;;;;;;;4.40;1.10;;;23.50;99.90;;;;;;10482651;28;20512;-87
2022/07/31 08:47:13;;;;;;;1.75;1.30;;;23.60;1.00;;;;;;10467002;28;20530;-86
2022/07/31 08:52:36;;;;;;;2.17;1.20;;;24.00;99.90;;;;;;10466162;28;20231;-87
2022/07/31 08:58:10;;;;;;;1.85;1.05;;;24.70;1.00;;;;;;10480249;28;20198;-86
2022/07/31 09:03:33;;;;;;;1.00;0.88;;;25.20;1.00;;;;;;10466535;28;20435;-86
2022/07/31 09:08:57;;;;;;;1.58;1.00;;;25.40;8.30;;;;;;10466064;28;20206;-86
2022/07/31 09:14:28;;;;;;;7.30;0.82;;;25.40;15.40;;;;;;10496068;28;20420;-84
2022/07/31 09:19:50;;;;;;;2.45;1.13;;;25.50;24.00;;;;;;10468869;28;20208;-86
2022/07/31 09:25:20;;;;;;;4.53;1.60;;;26.00;25.60;;;;;;10454190;28;20226;-88
2022/07/31 09:30:53;;;;;;;3.45;1.40;;;26.60;22.50;;;;;;10465174;28;20247;-86
2022/07/31 09:36:41;;;;;;;4.65;1.95;;;27.00;20.60;;;;;;10502002;28;20426;-86
2022/07/31 09:42:24;;;;;;;5.28;2.30;;;27.20;17.20;;;;;;10531330;28;20285;-86
2022/07/31 09:48:07;;;;;;;4.10;1.45;;;27.00;17.00;;;;;;10527604;28;20532;-87
2022/07/31 09:53:45;;;;;;;2.78;1.30;;;27.50;16.10;;;;;;10558769;28;20308;-89
2022/07/31 09:59:45;;;;;;;1.65;1.20;;;27.50;15.60;;;;;;10459680;28;20433;-88
2022/07/31 10:05:07;;;;;;;3.33;2.00;;;27.30;15.30;;;;;;10515546;28;20457;-87
2022/07/31 10:10:31;;;;;;;5.00;1.40;;;27.20;15.40;;;;;;10485463;28;20210;-87
2022/07/31 10:16:13;;;;;;;1.48;1.02;;;27.20;15.10;;;;;;10497116;28;20237;-86
2022/07/31 10:22:11;;;;;;;2.10;1.10;;;27.70;13.20;;;;;;10440180;28;20203;-88
2022/07/31 10:27:34;;;;;;;1.67;1.20;;;27.50;13.30;;;;;;10428567;28;20205;-89
2022/07/31 10:33:05;;;;;;;1.85;1.00;;;27.30;13.70;;;;;;10431194;28;20220;-87
2022/07/31 10:38:45;;;;;;;1.70;0.90;;;27.60;14.50;;;;;;10431570;28;20200;-89
2022/07/31 10:44:34;;;;;;;1.38;0.80;;;27.60;12.80;;;;;;10429744;28;20196;-89
2022/07/31 10:50:26;;;;;;;3.28;0.90;;;27.20;13.00;;;;;;10429606;28;20200;-89
2022/07/31 10:56:09;;;;;;;1.08;0.73;;;26.80;15.20;;;;;;10442269;28;20222;-87
2022/07/31 11:01:48;;;;;;;1.13;0.70;;;27.00;14.20;;;;;;10458123;28;20431;-87
2022/07/31 11:07:29;;;;;;;2.60;0.70;;;27.20;13.00;;;;;;10484231;28;20207;-87
2022/07/31 11:13:27;;;;;;;4.50;1.33;;;27.50;13.00;;;;;;10483772;28;20251;-87
2022/07/31 11:19:05;;;;;;;2.30;1.27;;;27.10;12.90;;;;;;10430829;28;20201;-87
2022/07/31 11:24:26;;;;;;;1.48;1.10;;;26.90;14.40;;;;;;10442417;28;20234;-89
2022/07/31 11:29:48;;;;;;;4.32;0.82;;;26.60;13.70;;;;;;10469765;28;20194;-88
2022/07/31 11:35:09;;;;;;;1.70;1.20;;;26.50;13.50;;;;;;10427160;28;20259;-86
2022/07/31 11:40:31;;;;;;;1.33;1.00;;;26.30;15.80;;;;;;10441365;28;20260;-88
2022/07/31 11:45:53;;;;;;;3.38;1.08;;;26.50;14.50;;;;;;10440840;28;20230;-87
2022/07/31 11:51:18;;;;;;;4.53;1.42;;;26.40;16.00;;;;;;10427118;28;20219;-87
2022/07/31 11:56:40;;;;;;;1.90;1.45;;;26.50;15.90;;;;;;10454541;28;20201;-87
2022/07/31 12:02:08;;;;;;;3.88;0.90;;;26.40;14.60;;;;;;10456525;28;20195;-87
2022/07/31 12:07:30;;;;;;;3.55;0.98;;;26.10;15.70;;;;;;10496108;28;20195;-87
2022/07/31 12:12:51;;;;;;;1.40;1.00;;;25.90;17.10;;;;;;10481047;28;20239;-87
2022/07/31 12:18:12;;;;;;;5.93;1.40;;;25.90;17.20;;;;;;10481147;28;20495;-89
2022/07/31 12:23:52;;;;;;;1.60;0.90;;;26.00;18.60;;;;;;10467240;28;20509;-87
2022/07/31 12:29:14;;;;;;;1.38;1.00;;;26.20;18.00;;;;;;10466762;28;20223;-90
2022/07/31 12:34:40;;;;;;;1.92;1.10;;;26.20;17.20;;;;;;10481052;28;20265;-86
2022/07/31 12:40:01;;;;;;;4.35;0.98;;;27.00;16.40;;;;;;10452711;28;20253;-87
2022/07/31 12:45:37;;;;;;;1.50;0.88;;;27.60;13.80;;;;;;10480224;28;20250;-87
2022/07/31 12:50:59;;;;;;;1.17;0.90;;;27.70;13.20;;;;;;10465404;28;20210;-89
2022/07/31 12:56:20;;;;;;;1.77;1.30;;;27.60;14.10;;;;;;10465672;28;20271;-87
2022/07/31 13:01:42;;;;;;;1.85;1.10;;;27.50;13.30;;;;;;10479781;28;20191;-88
2022/07/31 13:07:04;;;;;;;1.23;0.90;;;27.70;14.00;;;;;;10465090;28;20221;-87
2022/07/31 13:12:25;;;;;;;1.65;0.80;;;27.60;13.40;;;;;;10465099;28;20263;-88
2022/07/31 13:17:47;;;;;;;1.80;1.10;;;27.50;13.50;;;;;;10450661;28;20196;-89
2022/07/31 13:23:08;;;;;;;3.25;0.90;;;27.70;14.20;;;;;;10423758;28;20275;-89
2022/07/31 13:28:29;;;;;;;1.45;1.00;;;27.70;13.30;;;;;;10437662;28;20184;-89
2022/07/31 13:33:51;;;;;;;1.60;0.90;;;27.50;15.20;;;;;;10423486;28;20239;-89
2022/07/31 13:39:12;;;;;;;3.65;1.30;;;27.10;15.00;;;;;;10438390;28;20188;-88
2022/07/31 13:44:33;;;;;;;4.80;0.88;;;26.90;15.90;;;;;;10451442;28;20223;-87
2022/07/31 13:49:55;;;;;;;1.38;1.00;;;26.50;16.20;;;;;;10454173;28;20503;-86
2022/07/31 13:55:16;;;;;;;1.60;0.80;;;25.90;17.20;;;;;;10459813;28;20250;-85
2022/07/31 14:00:39;;;;;;;3.17;1.10;;;25.50;17.70;;;;;;10480702;28;20192;-86
2022/07/31 14:06:00;;;;;;;3.50;1.10;;;25.70;18.60;;;;;;10470218;28;20208;-88
2022/07/31 14:11:22;;;;;;;2.15;1.30;;;26.00;18.10;;;;;;10455663;28;20212;-88
2022/07/31 14:16:43;;;;;;;1.95;1.10;;;26.00;18.00;;;;;;10462709;28;20208;-89
2022/07/31 14:22:04;;;;;;;2.00;1.40;;;26.00;18.90;;;;;;10438878;28;20222;-88
2022/07/31 14:27:26;;;;;;;2.00;1.08;;;26.20;18.30;;;;;;10452420;28;20554;-89
2022/07/31 14:32:47;;;;;;;1.27;0.85;;;26.00;18.30;;;;;;10452360;28;20243;-88
2022/07/31 14:38:09;;;;;;;5.60;1.73;;;25.90;18.90;;;;;;10452060;28;20200;-89
2022/07/31 14:43:30;;;;;;;3.00;1.40;;;25.90;18.30;;;;;;10435606;28;20224;-87
2022/07/31 14:48:52;;;;;;;1.25;0.77;;;25.40;19.10;;;;;;10452366;28;20495;-88
2022/07/31 14:54:13;;;;;;;2.70;0.70;;;25.10;18.90;;;;;;10431196;28;20302;-87
2022/07/31 14:59:34;;;;;;;2.03;1.40;;;25.10;21.00;;;;;;10447833;28;20465;-89
2022/07/31 15:04:56;;;;;;;2.17;1.50;;;25.00;20.80;;;;;;10461154;28;20199;-89
2022/07/31 15:10:17;;;;;;;2.60;1.10;;;24.90;20.60;;;;;;10449410;28;20538;-89
2022/07/31 15:15:39;;;;;;;1.95;1.30;;;24.80;20.90;;;;;;10501928;28;20263;-88
2022/07/31 15:21:00;;;;;;;2.17;0.80;;;24.80;20.10;;;;;;10499212;28;20192;-88
2022/07/31 15:26:21;;;;;;;1.52;0.77;;;24.70;20.90;;;;;;10480560;28;20563;-89
2022/07/31 15:31:42;;;;;;;3.55;1.67;;;24.50;21.60;;;;;;10468383;28;20265;-88
2022/07/31 15:37:04;;;;;;;2.33;1.20;;;24.50;21.40;;;;;;10469317;28;20195;-89
2022/07/31 15:42:25;;;;;;;2.90;1.02;;;24.40;21.10;;;;;;10468976;28;20204;-88
2022/07/31 15:47:47;;;;;;;1.88;0.90;;;24.20;20.00;;;;;;10497597;28;20263;-89
2022/07/31 15:53:08;;;;;;;3.00;0.85;;;24.10;20.10;;;;;;10496775;28;20243;-87
2022/07/31 15:58:30;;;;;;;1.52;0.93;;;24.00;20.50;;;;;;10482262;28;20191;-88
2022/07/31 16:03:51;;;;;;;1.23;1.08;;;23.90;21.00;;;;;;10484318;28;20203;-87
2022/07/31 16:09:14;;;;;;;2.13;0.98;;;23.80;21.70;;;;;;10481771;28;20202;-87
2022/07/31 16:14:35;;;;;;;4.97;0.95;;;23.70;22.40;;;;;;10479367;28;20238;-88
2022/07/31 16:19:56;;;;;;;1.58;1.13;;;23.60;21.70;;;;;;10456440;28;20192;-88
2022/07/31 16:25:18;;;;;;;1.20;0.90;;;23.60;22.00;;;;;;10453858;28;20514;-87
2022/07/31 16:30:41;;;;;;;1.63;1.15;;;23.60;22.20;;;;;;10454394;28;20211;-89
2022/07/31 16:36:02;;;;;;;3.22;1.10;;;23.60;22.90;;;;;;10439591;28;20228;-88
2022/07/31 16:41:23;;;;;;;0.80;0.80;;;23.50;23.60;;;;;;10425456;28;20196;-88
2022/07/31 16:46:45;;;;;;;4.18;1.17;;;23.40;23.30;;;;;;10427996;28;20230;-89
2022/07/31 16:52:07;;;;;;;1.25;0.90;;;23.30;23.60;;;;;;10438995;28;20212;-89
2022/07/31 16:57:29;;;;;;;2.35;1.27;;;23.30;22.90;;;;;;10480693;28;20199;-88
2022/07/31 17:02:51;;;;;;;1.95;1.30;;;23.20;24.00;;;;;;10482191;28;20195;-88
2022/07/31 17:08:13;;;;;;;2.72;1.55;;;23.20;24.90;;;;;;10494598;28;20439;-88
2022/07/31 17:13:34;;;;;;;6.05;1.85;;;23.00;25.40;;;;;;10473940;28;20335;-88
2022/07/31 17:18:55;;;;;;;1.98;1.65;;;22.90;25.90;;;;;;10451701;28;20200;-88
2022/07/31 17:24:17;;;;;;;3.40;2.05;;;22.70;26.00;;;;;;10437461;28;20200;-88
2022/07/31 17:29:38;;;;;;;3.33;1.95;;;22.60;27.60;;;;;;10451426;28;20200;-88
2022/07/31 17:35:01;;;;;;;1.65;1.45;;;22.50;28.70;;;;;;10436526;28;20236;-86
2022/07/31 17:40:22;;;;;;;3.03;1.38;;;22.30;29.70;;;;;;10437056;28;20397;-89
2022/07/31 17:46:01;;;;;;;2.60;1.77;;;22.10;31.60;;;;;;10437129;28;20196;-87
2022/07/31 17:51:23;;;;;;;2.75;1.55;;;21.90;33.50;;;;;;10465110;28;20196;-87
2022/07/31 17:56:44;;;;;;;2.42;1.60;;;21.80;34.00;;;;;;10455721;28;20498;-88
2022/07/31 18:02:06;;;;;;;4.43;1.40;;;21.70;36.00;;;;;;10463483;28;20540;-88
2022/07/31 18:07:28;;;;;;;1.35;1.20;;;21.60;38.90;;;;;;10463616;28;20196;-88
2022/07/31 18:12:49;;;;;;;1.30;1.13;;;21.40;42.70;;;;;;10463487;28;20571;-88
2022/07/31 18:18:11;;;;;;;2.03;1.55;;;21.30;47.40;;;;;;10426251;28;20250;-88
2022/07/31 18:23:32;;;;;;;4.30;1.83;;;21.20;52.60;;;;;;10455390;28;20204;-89
2022/07/31 18:28:54;;;;;;;1.88;1.30;;;21.00;1.00;;;;;;10436457;28;20267;-87
2022/07/31 18:34:15;;;;;;;3.47;1.60;;;20.80;39.40;;;;;;10435751;28;20247;-89
2022/07/31 18:39:37;;;;;;;2.95;1.70;;;20.70;99.90;;;;;;10450066;28;20381;-88
2022/07/31 18:44:58;;;;;;;3.78;1.83;;;20.60;1.00;;;;;;10435981;28;20204;-88
2022/07/31 18:50:19;;;;;;;4.80;1.58;;;20.50;1.00;;;;;;10444129;28;20376;-88
2022/07/31 18:55:41;;;;;;;1.60;1.20;;;20.40;99.90;;;;;;10467930;28;20223;-88
2022/07/31 19:01:03;;;;;;;2.70;1.85;;;20.40;1.00;;;;;;10470171;28;20388;-88
2022/07/31 19:06:24;;;;;;;4.35;2.13;;;20.20;99.90;;;;;;10484368;28;20431;-89
2022/07/31 19:11:46;;;;;;;4.65;1.80;;;20.10;1.00;;;;;;10483926;28;20250;-88
2022/07/31 19:17:07;;;;;;;2.72;1.70;;;19.90;99.90;;;;;;10476012;28;20426;-88
2022/07/31 19:22:29;;;;;;;5.35;1.70;;;19.80;1.00;;;;;;10442267;28;20204;-88
2022/07/31 19:27:50;;;;;;;3.58;2.22;;;19.70;99.90;;;;;;10456245;28;20219;-87
2022/07/31 19:33:11;;;;;;;3.28;2.05;;;19.60;1.00;;;;;;10456045;28;20224;-86
2022/07/31 19:38:34;;;;;;;3.65;2.40;;;19.40;1.00;;;;;;10441958;28;20209;-86
2022/07/31 19:43:56;;;;;;;3.97;3.03;;;19.40;99.90;;;;;;10427317;28;20204;-88
2022/07/31 19:49:17;;;;;;;3.70;2.67;;;19.20;1.00;;;;;;10427560;28;20525;-88
2022/07/31 19:54:38;;;;;;;3.75;2.50;;;19.10;13.90;;;;;;10457069;28;20580;-89
2022/07/31 20:00:00;;;;;;;3.47;2.55;;;19.00;99.90;;;;;;10481987;28;20482;-87
2022/07/31 20:05:24;;;;;;;5.95;2.65;;;;;;;;;;10468437;28;20567;-87
2022/07/31 20:10:45;;;;;;;6.47;3.47;;;18.70;1.00;;;;;;10467901;28;20545;-87
2022/07/31 20:16:07;;;;;;;7.85;3.40;;;18.60;1.00;;;;;;10467108;28;20271;-87
2022/07/31 20:21:28;;;;;;;5.05;2.80;;;18.50;1.00;;;;;;10467571;28;20502;-88
2022/07/31 20:26:49;;;;;;;6.53;2.83;;;18.40;1.00;;;;;;10500339;28;20570;-86
2022/07/31 20:32:11;;;;;;;4.55;2.55;;;18.40;54.80;;;;;;10467275;28;20222;-86
2022/07/31 20:37:32;;;;;;;4.75;2.15;;;18.30;99.90;;;;;;10481043;28;20257;-86
2022/07/31 20:42:55;;;;;;;3.20;2.00;;;18.20;99.90;;;;;;10487719;28;20203;-87
2022/07/31 20:48:16;;;;;;;5.10;1.85;;;18.20;99.90;;;;;;10480346;28;20234;-88
2022/07/31 20:53:38;;;;;;;6.70;2.30;;;18.10;99.90;;;;;;10499715;28;20460;-88
2022/07/31 20:58:59;;;;;;;3.15;1.98;;;18.10;99.90;;;;;;10479876;28;20420;-89
2022/07/31 21:04:20;;;;;;;3.03;1.90;;;18.00;99.90;;;;;;10440970;28;20232;-88
2022/07/31 21:09:42;;;;;;;3.50;1.83;;;17.90;99.90;;;;;;10437535;28;20381;-88
2022/07/31 21:15:06;;;;;;;3.75;2.28;;;17.90;99.90;;;;;;10469409;28;20239;-87
2022/07/31 21:20:28;;;;;;;2.42;2.08;;;17.80;99.90;;;;;;10465342;28;20219;-88
2022/07/31 21:25:55;;;;;;;4.20;2.17;;;17.80;1.00;;;;;;10465188;28;20225;-88
2022/07/31 21:31:16;;;;;;;5.82;2.17;;;17.60;1.00;;;;;;10498387;28;20253;-88
2022/07/31 21:36:38;;;;;;;3.25;2.00;;;17.60;1.00;;;;;;10478762;28;20247;-87
2022/07/31 21:42:00;;;;;;;3.95;2.08;;;17.50;1.00;;;;;;10483730;28;20202;-87
2022/07/31 21:47:24;;;;;;;7.35;2.03;;;17.50;1.00;;;;;;10464244;28;20208;-86
2022/07/31 21:52:46;;;;;;;4.40;2.63;;;17.50;1.00;;;;;;10477847;28;20226;-86
2022/07/31 21:58:08;;;;;;;6.43;3.35;;;17.40;1.00;;;;;;10464090;28;20187;-86
2022/07/31 22:03:30;;;;;;;9.07;5.35;;;17.40;1.00;;;;;;10479878;28;20200;-86
2022/07/31 22:08:52;;;;;;;10.60;5.07;;;17.30;1.00;;;;;;10494231;28;20210;-85
2022/07/31 22:14:13;;;;;;;6.10;3.60;;;17.10;1.00;;;;;;10482440;28;20261;-86
2022/07/31 22:19:35;;;;;;;6.15;3.25;;;17.10;1.00;;;;;;10470889;28;20219;-88
2022/07/31 22:24:57;;;;;;;6.20;3.38;;;17.00;1.00;;;;;;10491395;28;20203;-88
2022/07/31 22:30:20;;;;;;;6.35;3.13;;;16.90;1.00;;;;;;10477529;28;20249;-88
2022/07/31 22:35:41;;;;;;;4.00;2.72;;;16.80;1.00;;;;;;10477024;28;20239;-89
2022/07/31 22:41:03;;;;;;;4.60;2.67;;;16.80;1.00;;;;;;10491344;28;20199;-87
2022/07/31 22:46:24;;;;;;;6.18;2.97;;;16.70;1.00;;;;;;10476850;28;20422;-89
2022/07/31 22:51:45;;;;;;;5.28;2.47;;;16.70;1.00;;;;;;10462673;28;20203;-89
2022/07/31 22:57:07;;;;;;;4.22;2.67;;;16.70;1.00;;;;;;10476608;28;20273;-87
2022/07/31 23:02:28;;;;;;;4.75;3.10;;;16.70;1.00;;;;;;10476225;28;20231;-88
2022/07/31 23:07:50;;;;;;;5.97;3.20;;;16.60;1.00;;;;;;10490566;28;20283;-87
2022/07/31 23:13:11;;;;;;;4.78;3.30;;;16.50;1.00;;;;;;10491067;28;20239;-87
2022/07/31 23:18:32;;;;;;;6.38;2.47;;;16.50;1.00;;;;;;10456007;28;20231;-88
2022/07/31 23:23:54;;;;;;;3.40;2.90;;;16.50;1.00;;;;;;10434501;28;20204;-88
2022/07/31 23:29:15;;;;;;;5.53;2.97;;;16.40;1.00;;;;;;10462713;28;20207;-88
2022/07/31 23:34:37;;;;;;;6.57;3.95;;;16.30;1.00;;;;;;10458459;28;20230;-88
2022/07/31 23:39:58;;;;;;;8.05;3.75;;;16.30;1.00;;;;;;10456285;28;20490;-87
2022/07/31 23:45:19;;;;;;;4.65;2.92;;;16.30;1.00;;;;;;10458379;28;20208;-88
2022/07/31 23:50:41;;;;;;;7.57;3.38;;;16.20;1.00;;;;;;10455556;28;20203;-87
2022/07/31 23:56:02;;;;;;;5.80;3.50;;;16.20;1.00;;;;;;10487960;28;20281;-87
